Time;durP1;ratioP1;P1;durP2;ratioP2;P2;SDS_P1;SDS_P2;PMS_P1;PMS_P2;Temp;Humidity;BMP_temperature;BMP_pressure;BME280_temperature;BME280_humidity;BME280_pressure;Samples;Min_cycle;Max_cycle;Signal;HPM_P1;HPM_P2
2022/01/29 00:00:47;;;;;;;66.90;31.80;;;;;;;;;;5051710;28;20071;-63
2022/01/29 00:03:13;;;;;;;67.93;31.50;;;;;;;;;;5051521;28;20029;-64
2022/01/29 00:05:39;;;;;;;51.85;26.15;;;;;;;;;;5050786;28;20136;-71
2022/01/29 00:08:05;;;;;;;48.80;26.70;;;;;;;;;;5051293;28;20090;-62
2022/01/29 00:10:31;;;;;;;48.78;25.73;;;;;;;;;;5051182;28;20025;-67
2022/01/29 00:12:58;;;;;;;51.90;23.55;;;;;;;;;;5051031;28;20039;-64
2022/01/29 00:15:23;;;;;;;47.40;23.33;;;;;;;;;;5051466;28;20029;-63
2022/01/29 00:17:49;;;;;;;48.38;22.75;;;;;;;;;;5052378;28;20103;-64
2022/01/29 00:20:15;;;;;;;35.85;18.98;;;;;;;;;;5050845;28;20021;-63
2022/01/29 00:22:41;;;;;;;35.00;18.63;;;;;;;;;;5051054;28;20028;-63
2022/01/29 00:25:10;;;;;;;35.65;19.08;;;;;;;;;;5051341;28;20021;-69
2022/01/29 00:27:37;;;;;;;33.10;17.15;;;;;;;;;;5050263;28;20052;-68
2022/01/29 00:30:09;;;;;;;32.67;16.88;;;;;;;;;;5051236;28;20029;-66
2022/01/29 00:32:35;;;;;;;29.45;16.02;;;;;;;;;;5051261;28;20041;-65
2022/01/29 00:35:02;;;;;;;30.05;17.77;;;;;;;;;;5049185;28;20114;-70
2022/01/29 00:37:28;;;;;;;35.92;16.90;;;;;;;;;;5050912;28;20037;-73
2022/01/29 00:39:54;;;;;;;35.83;17.88;;;;;;;;;;5051167;28;20029;-71
2022/01/29 00:42:20;;;;;;;32.03;17.85;;;;;;;;;;5050617;28;20037;-68
2022/01/29 00:44:46;;;;;;;34.85;19.13;;;;;;;;;;5051264;28;20480;-72
2022/01/29 00:47:14;;;;;;;36.00;19.60;;;;;;;;;;5050870;28;20033;-66
2022/01/29 00:49:40;;;;;;;42.88;19.58;;;;;;;;;;5054722;28;20024;-68
2022/01/29 00:52:06;;;;;;;46.58;21.48;;;;;;;;;;5055140;28;20029;-71
2022/01/29 00:54:31;;;;;;;38.40;21.15;;;;;;;;;;5054515;28;20059;-67
2022/01/29 00:56:57;;;;;;;41.28;20.05;;;;;;;;;;5054268;28;20155;-67
2022/01/29 00:59:23;;;;;;;31.30;16.15;;;;;;;;;;5054899;28;20079;-65
2022/01/29 01:01:49;;;;;;;30.50;15.43;;;;;;;;;;5054640;28;20032;-69
2022/01/29 01:04:15;;;;;;;36.03;18.05;;;;;;;;;;5054519;28;20029;-67
2022/01/29 01:06:41;;;;;;;40.13;17.77;;;;;;;;;;5054786;28;20043;-71
2022/01/29 01:09:07;;;;;;;39.33;18.52;;;;;;;;;;5054678;28;20025;-73
2022/01/29 01:11:32;;;;;;;60.35;26.05;;;;;;;;;;5053793;28;20128;-71
2022/01/29 01:13:58;;;;;;;45.60;22.83;;;;;;;;;;5054283;28;20021;-71
2022/01/29 01:16:24;;;;;;;44.30;22.90;;;;;;;;;;5054577;28;20090;-72
2022/01/29 01:18:50;;;;;;;44.20;20.65;;;;;;;;;;5053946;28;20028;-72
2022/01/29 01:21:15;;;;;;;46.20;22.70;;;;;;;;;;5053867;28;20037;-73
2022/01/29 01:23:41;;;;;;;32.95;16.77;;;;;;;;;;5053738;28;20021;-71
2022/01/29 01:26:07;;;;;;;32.05;17.08;;;;;;;;;;5053517;28;20480;-72
2022/01/29 01:28:33;;;;;;;31.70;16.40;;;;;;;;;;5053871;28;20507;-70
2022/01/29 01:30:59;;;;;;;27.48;13.82;;;;;;;;;;5054021;28;20426;-66
2022/01/29 01:33:25;;;;;;;26.50;12.75;;;;;;;;;;5053508;28;20373;-70
2022/01/29 01:35:55;;;;;;;26.45;13.15;;;;;;;;;;5054093;28;20078;-73
2022/01/29 01:38:33;;;;;;;23.65;12.45;;;;;;;;;;5053394;28;20065;-72
2022/01/29 01:41:04;;;;;;;24.58;12.60;;;;;;;;;;5052371;28;20051;-72
2022/01/29 01:43:30;;;;;;;26.20;12.18;;;;;;;;;;5053366;28;20033;-71
2022/01/29 01:45:56;;;;;;;24.10;12.38;;;;;;;;;;5053729;28;20032;-66
2022/01/29 01:48:22;;;;;;;24.73;12.82;;;;;;;;;;5053069;28;20123;-70
2022/01/29 01:50:49;;;;;;;25.20;11.75;;;;;;;;;;5053668;28;20170;-65
2022/01/29 01:53:15;;;;;;;23.80;12.25;;;;;;;;;;5053354;28;20519;-66
2022/01/29 01:55:41;;;;;;;22.73;11.70;;;;;;;;;;5053085;28;20053;-73
2022/01/29 01:58:07;;;;;;;24.58;12.35;;;;;;;;;;5053547;28;20040;-75
2022/01/29 02:00:33;;;;;;;22.77;11.48;;;;;;;;;;5052457;28;20072;-69
2022/01/29 02:02:59;;;;;;;20.02;11.55;;;;;;;;;;5052856;28;20025;-74
2022/01/29 02:05:25;;;;;;;21.25;11.52;;;;;;;;;;5053131;28;20468;-71
2022/01/29 02:07:52;;;;;;;25.05;11.20;;;;;;;;;;5053618;28;20029;-69
2022/01/29 02:10:19;;;;;;;22.45;11.57;;;;;;;;;;5053028;28;20402;-73
2022/01/29 02:12:51;;;;;;;22.85;11.57;;;;;;;;;;5053463;28;20033;-70
2022/01/29 02:15:19;;;;;;;23.02;12.00;;;;;;;;;;5053467;28;20057;-71
2022/01/29 02:17:46;;;;;;;24.92;13.50;;;;;;;;;;5052032;28;20028;-69
2022/01/29 02:20:16;;;;;;;28.45;14.60;;;;;;;;;;5052117;28;20533;-71
2022/01/29 02:22:43;;;;;;;23.25;13.30;;;;;;;;;;5052711;28;20037;-69
2022/01/29 02:25:36;;;;;;;24.50;13.35;;;;;;;;;;5052758;28;20032;-71
2022/01/29 02:28:14;;;;;;;24.63;12.65;;;;;;;;;;5050086;28;20049;-71
2022/01/29 02:30:42;;;;;;;25.52;13.18;;;;;;;;;;5053020;28;20033;-69
2022/01/29 02:33:12;;;;;;;25.17;12.95;;;;;;;;;;5052872;28;20020;-69
2022/01/29 02:35:45;;;;;;;28.20;14.15;;;;;;;;;;5053396;28;20368;-71
2022/01/29 02:38:13;;;;;;;30.48;14.30;;;;;;;;;;5053242;28;20060;-70
2022/01/29 02:43:13;;;;;;;26.75;15.05;;;;;;;;;;5052734;28;20044;-72
2022/01/29 02:45:41;;;;;;;31.77;14.63;;;;;;;;;;5056760;28;20076;-71
2022/01/29 02:48:07;;;;;;;33.53;16.45;;;;;;;;;;5038691;28;20038;-72
2022/01/29 02:50:32;;;;;;;31.25;16.05;;;;;;;;;;5032471;28;20360;-72
2022/01/29 02:52:58;;;;;;;22.77;12.07;;;;;;;;;;5044351;28;20037;-67
2022/01/29 02:55:24;;;;;;;20.95;11.07;;;;;;;;;;5051589;28;20025;-73
2022/01/29 02:57:50;;;;;;;18.17;9.55;;;;;;;;;;5052132;28;20029;-73
2022/01/29 03:00:16;;;;;;;19.10;9.82;;;;;;;;;;5052342;28;20035;-73
2022/01/29 03:02:42;;;;;;;35.67;17.77;;;;;;;;;;5052184;28;20033;-72
2022/01/29 03:05:08;;;;;;;36.67;18.92;;;;;;;;;;5052156;28;20567;-72
2022/01/29 03:07:33;;;;;;;42.50;22.40;;;;;;;;;;5051822;28;20033;-66
2022/01/29 03:09:59;;;;;;;41.28;23.17;;;;;;;;;;5051126;28;20426;-72
2022/01/29 03:12:25;;;;;;;40.83;21.23;;;;;;;;;;5051632;28;20041;-73
2022/01/29 03:14:51;;;;;;;44.45;22.42;;;;;;;;;;5051844;28;20017;-73
2022/01/29 03:17:16;;;;;;;42.22;21.77;;;;;;;;;;5050893;28;20044;-72
2022/01/29 03:19:42;;;;;;;39.33;20.92;;;;;;;;;;5052065;28;20040;-72
2022/01/29 03:22:08;;;;;;;38.20;20.13;;;;;;;;;;5051978;28;20041;-71
2022/01/29 03:24:33;;;;;;;37.50;19.55;;;;;;;;;;5051451;28;20032;-72
2022/01/29 03:26:59;;;;;;;40.13;21.83;;;;;;;;;;5051802;28;20387;-73
2022/01/29 03:29:25;;;;;;;34.70;20.08;;;;;;;;;;5050613;28;20487;-68
2022/01/29 03:31:51;;;;;;;35.88;20.02;;;;;;;;;;5051140;28;20069;-72
2022/01/29 03:34:16;;;;;;;37.67;20.50;;;;;;;;;;5051358;28;20032;-74
2022/01/29 03:36:42;;;;;;;47.35;22.50;;;;;;;;;;5051903;28;20033;-73
2022/01/29 03:39:08;;;;;;;44.45;22.45;;;;;;;;;;5049969;28;20390;-70
2022/01/29 03:41:34;;;;;;;44.25;19.80;;;;;;;;;;5051617;28;20029;-71
2022/01/29 03:44:04;;;;;;;37.95;20.05;;;;;;;;;;5051046;28;20376;-70
2022/01/29 03:46:30;;;;;;;39.17;20.25;;;;;;;;;;5049919;28;20089;-70
2022/01/29 03:48:56;;;;;;;38.65;20.65;;;;;;;;;;5051146;28;20478;-69
2022/01/29 03:51:21;;;;;;;41.70;21.83;;;;;;;;;;5039303;28;20369;-72
2022/01/29 03:53:47;;;;;;;49.55;21.92;;;;;;;;;;5029710;28;20473;-73
2022/01/29 03:56:13;;;;;;;48.28;20.05;;;;;;;;;;5031632;28;20333;-71
2022/01/29 03:58:39;;;;;;;33.55;18.08;;;;;;;;;;5030504;28;20033;-71
2022/01/29 04:01:05;;;;;;;36.25;17.65;;;;;;;;;;5031422;28;20496;-71
2022/01/29 04:03:32;;;;;;;43.97;20.73;;;;;;;;;;5031634;28;20334;-72
2022/01/29 04:05:58;;;;;;;28.55;15.55;;;;;;;;;;5031808;28;20506;-70
2022/01/29 04:08:25;;;;;;;31.02;17.20;;;;;;;;;;5031161;28;20076;-73
2022/01/29 04:10:52;;;;;;;30.23;16.65;;;;;;;;;;5031746;28;20113;-71
2022/01/29 04:13:22;;;;;;;32.90;17.63;;;;;;;;;;5031192;28;20022;-71
2022/01/29 04:15:47;;;;;;;22.33;12.48;;;;;;;;;;5031025;28;20065;-73
2022/01/29 04:18:13;;;;;;;24.98;11.40;;;;;;;;;;5031114;28;20064;-69
2022/01/29 04:20:39;;;;;;;27.83;11.95;;;;;;;;;;5031187;28;20425;-73
2022/01/29 04:23:08;;;;;;;23.50;11.40;;;;;;;;;;5032223;28;20520;-72
2022/01/29 04:25:34;;;;;;;22.60;9.93;;;;;;;;;;5035193;28;20067;-71
2022/01/29 04:28:00;;;;;;;17.70;9.32;;;;;;;;;;5035221;28;20143;-68
2022/01/29 04:35:18;;;;;;;18.45;8.43;;;;;;;;;;5055228;28;20036;-70
2022/01/29 04:37:44;;;;;;;12.63;6.85;;;;;;;;;;5036239;28;20044;-71
2022/01/29 04:40:10;;;;;;;11.57;6.85;;;;;;;;;;5033840;28;20026;-73
2022/01/29 04:42:36;;;;;;;11.57;7.07;;;;;;;;;;5036454;28;20017;-71
2022/01/29 04:45:02;;;;;;;11.68;6.07;;;;;;;;;;5035818;28;20155;-69
2022/01/29 04:47:28;;;;;;;13.35;7.57;;;;;;;;;;5048578;28;20017;-69
2022/01/29 04:49:54;;;;;;;10.00;5.93;;;;;;;;;;5055353;28;20043;-69
2022/01/29 04:52:20;;;;;;;9.82;5.22;;;;;;;;;;5055589;28;20017;-63
2022/01/29 04:54:45;;;;;;;8.95;5.45;;;;;;;;;;5052948;28;20063;-65
2022/01/29 04:57:11;;;;;;;11.15;5.05;;;;;;;;;;5035349;28;20473;-64
2022/01/29 04:59:37;;;;;;;10.45;6.00;;;;;;;;;;5035572;28;20030;-65
2022/01/29 05:02:03;;;;;;;10.63;6.13;;;;;;;;;;5035941;28;20087;-65
2022/01/29 05:04:29;;;;;;;14.07;6.22;;;;;;;;;;5035489;28;20109;-66
2022/01/29 05:06:54;;;;;;;10.70;4.93;;;;;;;;;;5035661;28;20018;-63
2022/01/29 05:09:20;;;;;;;13.25;6.18;;;;;;;;;;5035194;28;20061;-69
2022/01/29 05:11:49;;;;;;;11.85;6.28;;;;;;;;;;5036613;28;20362;-65
2022/01/29 05:14:30;;;;;;;18.73;10.52;;;;;;;;;;5036055;28;20034;-64
2022/01/29 05:27:53;;;;;;;30.70;16.27;;;;;;;;;;5044111;28;20499;-70
2022/01/29 05:30:19;;;;;;;24.85;14.02;;;;;;;;;;5053376;28;20033;-69
2022/01/29 05:32:45;;;;;;;27.13;14.68;;;;;;;;;;5054965;28;20541;-66
2022/01/29 05:35:11;;;;;;;22.27;13.95;;;;;;;;;;5054571;28;20056;-69
2022/01/29 05:37:36;;;;;;;28.38;14.55;;;;;;;;;;5054503;28;20395;-67
2022/01/29 05:40:02;;;;;;;23.92;13.60;;;;;;;;;;5054600;28;20036;-68
2022/01/29 05:42:28;;;;;;;23.60;12.75;;;;;;;;;;5054695;28;20033;-68
2022/01/29 05:44:54;;;;;;;22.92;12.77;;;;;;;;;;5054705;28;20098;-70
2022/01/29 05:47:20;;;;;;;23.85;12.57;;;;;;;;;;5037500;28;20034;-70
2022/01/29 05:49:45;;;;;;;25.40;13.43;;;;;;;;;;5035240;28;20346;-67
2022/01/29 05:52:11;;;;;;;25.60;14.48;;;;;;;;;;5034520;28;20106;-72
2022/01/29 05:54:37;;;;;;;20.90;12.10;;;;;;;;;;5034435;28;20025;-72
2022/01/29 05:57:03;;;;;;;28.77;12.32;;;;;;;;;;5034336;28;20392;-69
2022/01/29 05:59:29;;;;;;;31.42;14.20;;;;;;;;;;5033946;28;20163;-67
2022/01/29 06:01:54;;;;;;;30.70;15.32;;;;;;;;;;5034204;28;20037;-69
2022/01/29 06:04:20;;;;;;;34.92;16.38;;;;;;;;;;5052743;28;20139;-65
2022/01/29 06:06:46;;;;;;;25.92;14.27;;;;;;;;;;5054384;28;20510;-68
2022/01/29 06:09:11;;;;;;;32.08;14.80;;;;;;;;;;5044516;28;20519;-68
2022/01/29 06:11:37;;;;;;;22.13;13.43;;;;;;;;;;5034431;28;20041;-64
2022/01/29 06:14:03;;;;;;;25.65;13.80;;;;;;;;;;5035056;28;20025;-65
2022/01/29 06:16:30;;;;;;;25.88;13.40;;;;;;;;;;5054078;28;20151;-71
2022/01/29 06:18:55;;;;;;;16.70;8.68;;;;;;;;;;5053945;28;20388;-71
2022/01/29 06:21:21;;;;;;;19.23;9.48;;;;;;;;;;5053495;28;20045;-71
2022/01/29 06:23:47;;;;;;;13.88;4.30;;;;;;;;;;5053975;28;20024;-69
2022/01/29 06:26:13;;;;;;;8.90;3.72;;;;;;;;;;5054040;28;20045;-72
2022/01/29 06:28:40;;;;;;;7.10;2.60;;;;;;;;;;5053713;28;20486;-72
2022/01/29 06:31:06;;;;;;;10.32;2.97;;;;;;;;;;5054043;28;20159;-69
2022/01/29 06:33:32;;;;;;;22.83;3.83;;;;;;;;;;5053426;28;20121;-73
2022/01/29 06:35:58;;;;;;;15.25;2.63;;;;;;;;;;5053389;28;20037;-70
2022/01/29 06:38:24;;;;;;;8.68;2.40;;;;;;;;;;5053206;28;20484;-68
2022/01/29 06:40:50;;;;;;;11.15;2.35;;;;;;;;;;5053568;28;20124;-72
2022/01/29 06:43:16;;;;;;;7.05;2.65;;;;;;;;;;5053944;28;20021;-67
2022/01/29 06:45:44;;;;;;;4.47;2.42;;;;;;;;;;5052530;28;20325;-70
2022/01/29 06:48:11;;;;;;;6.20;2.53;;;;;;;;;;5053194;28;20025;-66
2022/01/29 06:50:37;;;;;;;6.70;3.67;;;;;;;;;;5053109;28;20546;-70
2022/01/29 06:53:04;;;;;;;3.88;2.13;;;;;;;;;;5044580;28;20057;-68
2022/01/29 06:55:30;;;;;;;6.78;2.38;;;;;;;;;;5042331;28;20037;-64
2022/01/29 06:57:55;;;;;;;4.82;2.10;;;;;;;;;;5041770;28;20033;-65
2022/01/29 07:00:21;;;;;;;10.25;4.43;;;;;;;;;;5034922;28;20064;-68
2022/01/29 07:02:47;;;;;;;8.00;4.72;;;;;;;;;;5038571;28;20048;-70
2022/01/29 07:05:13;;;;;;;12.55;5.55;;;;;;;;;;5036104;28;20055;-70
2022/01/29 07:07:39;;;;;;;9.80;4.97;;;;;;;;;;5032723;28;20566;-67
2022/01/29 07:10:06;;;;;;;11.38;6.65;;;;;;;;;;5032979;28;20485;-70
2022/01/29 07:12:32;;;;;;;14.15;8.15;;;;;;;;;;5031759;28;20025;-73
2022/01/29 07:21:15;;;;;;;21.38;10.43;;;;;;;;;;4582617;28;20099;-72
2022/01/29 07:23:40;;;;;;;21.40;10.85;;;;;;;;;;4976545;28;20390;-77
2022/01/29 07:26:06;;;;;;;20.83;11.32;;;;;;;;;;4984915;28;20441;-73
2022/01/29 07:28:32;;;;;;;20.70;11.40;;;;;;;;;;4974092;28;20366;-72
2022/01/29 07:30:58;;;;;;;18.23;11.00;;;;;;;;;;4978705;28;20049;-73
2022/01/29 07:33:24;;;;;;;21.48;10.23;;;;;;;;;;4990355;28;20042;-78
2022/01/29 07:35:49;;;;;;;17.42;10.05;;;;;;;;;;4993560;28;20026;-76
2022/01/29 07:38:15;;;;;;;21.30;11.00;;;;;;;;;;4992969;28;20120;-78
2022/01/29 07:40:41;;;;;;;18.27;10.75;;;;;;;;;;4993428;28;20118;-74
2022/01/29 07:43:07;;;;;;;23.23;11.02;;;;;;;;;;4991329;28;20031;-72
2022/01/29 07:45:32;;;;;;;23.48;12.50;;;;;;;;;;4993303;28;20041;-70
2022/01/29 07:47:58;;;;;;;26.00;13.50;;;;;;;;;;4977505;28;20083;-77
2022/01/29 07:50:24;;;;;;;26.98;14.15;;;;;;;;;;4971204;28;20030;-78
2022/01/29 07:52:50;;;;;;;25.77;14.27;;;;;;;;;;4990065;28;20026;-72
2022/01/29 07:55:15;;;;;;;23.10;12.90;;;;;;;;;;4992723;28;20125;-74
2022/01/29 07:57:41;;;;;;;29.95;15.18;;;;;;;;;;4991586;28;20038;-72
2022/01/29 08:00:07;;;;;;;25.38;14.27;;;;;;;;;;4993189;28;20145;-72
2022/01/29 08:02:39;;;;;;;26.02;14.60;;;;;;;;;;4993405;28;20046;-72
2022/01/29 08:05:05;;;;;;;23.90;14.38;;;;;;;;;;4992504;28;20096;-78
2022/01/29 08:07:30;;;;;;;25.17;11.38;;;;;;;;;;4993279;28;20027;-76
2022/01/29 08:09:56;;;;;;;26.88;14.38;;;;;;;;;;4992845;28;20110;-71
2022/01/29 08:12:22;;;;;;;27.27;13.73;;;;;;;;;;4992876;28;20526;-73
2022/01/29 08:14:49;;;;;;;24.52;14.60;;;;;;;;;;4975736;28;20058;-73
2022/01/29 08:17:14;;;;;;;21.48;12.85;;;;;;;;;;4971805;28;20093;-76
2022/01/29 08:19:40;;;;;;;24.13;13.25;;;;;;;;;;4972162;28;20035;-72
2022/01/29 08:22:06;;;;;;;23.08;14.02;;;;;;;;;;4973358;28;20050;-73
2022/01/29 08:24:32;;;;;;;17.70;10.07;;;;;;;;;;4973397;28;20037;-75
2022/01/29 08:26:57;;;;;;;14.40;6.43;;;;;;;;;;4973630;28;20031;-68
2022/01/29 08:29:23;;;;;;;9.73;3.80;;;;;;;;;;4973534;28;20085;-77
2022/01/29 08:31:49;;;;;;;7.70;4.20;;;;;;;;;;4970629;28;20029;-74
2022/01/29 08:34:15;;;;;;;6.43;3.83;;;;;;;;;;4984940;28;20026;-75
2022/01/29 08:36:40;;;;;;;8.55;4.00;;;;;;;;;;4992253;28;20025;-75
2022/01/29 08:39:06;;;;;;;6.10;4.07;;;;;;;;;;4992814;28;20037;-75
2022/01/29 08:41:32;;;;;;;5.80;3.80;;;;;;;;;;4992833;28;20026;-76
2022/01/29 08:43:58;;;;;;;6.63;3.78;;;;;;;;;;4992837;28;20129;-74
2022/01/29 08:46:24;;;;;;;4.68;3.00;;;;;;;;;;4992518;28;20060;-70
2022/01/29 08:48:50;;;;;;;5.70;3.53;;;;;;;;;;4992413;28;20026;-73
2022/01/29 08:51:16;;;;;;;8.95;4.30;;;;;;;;;;4991431;28;20027;-76
2022/01/29 08:53:42;;;;;;;7.53;3.67;;;;;;;;;;4984915;28;20509;-75
2022/01/29 08:56:08;;;;;;;8.88;4.22;;;;;;;;;;4989592;28;20033;-78
2022/01/29 08:58:33;;;;;;;8.18;3.95;;;;;;;;;;4992626;28;20073;-79
2022/01/29 09:01:07;;;;;;;9.38;3.80;;;;;;;;;;4992153;28;20030;-74
2022/01/29 09:03:33;;;;;;;10.82;4.43;;;;;;;;;;4992519;28;20053;-72
2022/01/29 09:05:59;;;;;;;5.90;3.28;;;;;;;;;;4992824;28;20392;-70
2022/01/29 09:08:24;;;;;;;7.32;3.20;;;;;;;;;;4992603;28;20473;-74
2022/01/29 09:10:52;;;;;;;6.25;2.58;;;;;;;;;;4995962;28;20030;-78
2022/01/29 09:13:17;;;;;;;5.00;2.78;;;;;;;;;;4995558;28;20044;-70
2022/01/29 09:15:43;;;;;;;3.50;1.90;;;;;;;;;;4995941;28;20383;-70
2022/01/29 09:18:09;;;;;;;4.68;2.80;;;;;;;;;;4995422;28;20132;-76
2022/01/29 09:20:34;;;;;;;6.43;2.75;;;;;;;;;;4995556;28;20505;-76
2022/01/29 09:23:00;;;;;;;2.80;1.83;;;;;;;;;;4995857;28;20043;-73
2022/01/29 09:25:27;;;;;;;3.45;2.40;;;;;;;;;;4995679;28;20037;-73
2022/01/29 09:27:52;;;;;;;8.75;2.75;;;;;;;;;;4995594;28;20495;-71
2022/01/29 09:30:18;;;;;;;4.95;2.92;;;;;;;;;;4995668;28;20030;-71
2022/01/29 09:32:44;;;;;;;8.05;3.80;;;;;;;;;;4995458;28;20038;-73
2022/01/29 09:35:10;;;;;;;9.52;3.60;;;;;;;;;;4983948;28;20433;-75
2022/01/29 09:37:36;;;;;;;7.30;2.47;;;;;;;;;;4977870;28;20110;-70
2022/01/29 09:40:02;;;;;;;8.35;3.30;;;;;;;;;;4993191;28;20377;-71
2022/01/29 09:42:28;;;;;;;8.90;4.45;;;;;;;;;;4994773;28;20038;-70
2022/01/29 09:44:53;;;;;;;5.95;3.42;;;;;;;;;;4994722;28;20023;-72
2022/01/29 09:47:21;;;;;;;5.30;2.95;;;;;;;;;;4994728;28;20133;-73
2022/01/29 09:49:47;;;;;;;7.32;3.05;;;;;;;;;;4995086;28;20026;-75
2022/01/29 09:52:13;;;;;;;7.30;4.00;;;;;;;;;;4995195;28;20035;-73
2022/01/29 09:54:40;;;;;;;5.57;3.13;;;;;;;;;;4995731;28;20040;-73
2022/01/29 09:57:06;;;;;;;5.47;3.55;;;;;;;;;;4995339;28;20026;-74
2022/01/29 09:59:32;;;;;;;6.32;3.75;;;;;;;;;;5002208;28;20468;-70
2022/01/29 10:01:57;;;;;;;7.30;4.13;;;;;;;;;;4998325;28;20035;-77
2022/01/29 10:04:24;;;;;;;11.00;4.38;;;;;;;;;;4978804;28;20054;-74
2022/01/29 10:07:13;;;;;;;6.40;4.35;;;;;;;;;;4975675;28;20481;-71
2022/01/29 10:09:38;;;;;;;7.65;3.67;;;;;;;;;;4975269;28;20061;-75
2022/01/29 10:12:19;;;;;;;7.72;3.50;;;;;;;;;;4973523;28;20035;-77
2022/01/29 10:15:00;;;;;;;5.97;3.30;;;;;;;;;;4967772;28;20037;-71
2022/01/29 10:17:55;;;;;;;5.10;2.55;;;;;;;;;;4967997;28;20129;-74
2022/01/29 10:20:24;;;;;;;6.47;2.88;;;;;;;;;;4970418;28;20041;-71
2022/01/29 10:22:52;;;;;;;6.10;3.30;;;;;;;;;;4964979;28;20035;-74
2022/01/29 10:25:23;;;;;;;6.47;3.78;;;;;;;;;;4993875;28;20062;-73
2022/01/29 10:28:11;;;;;;;9.85;4.30;;;;;;;;;;4980837;28;20323;-73
2022/01/29 10:30:48;;;;;;;8.65;5.15;;;;;;;;;;4974387;28;20030;-76
2022/01/29 10:33:26;;;;;;;7.53;5.00;;;;;;;;;;4974652;28;20027;-71
2022/01/29 10:35:55;;;;;;;12.38;7.07;;;;;;;;;;4979726;28;20157;-72
2022/01/29 10:38:40;;;;;;;5.20;3.47;;;;;;;;;;4993845;28;20960;-70
2022/01/29 10:41:27;;;;;;;6.43;3.88;;;;;;;;;;4993945;28;20503;-72
2022/01/29 10:43:59;;;;;;;6.78;4.10;;;;;;;;;;4993946;28;20042;-73
2022/01/29 10:46:30;;;;;;;8.73;4.95;;;;;;;;;;4993852;28;20026;-74
2022/01/29 10:48:59;;;;;;;10.23;4.88;;;;;;;;;;4994347;28;20138;-74
2022/01/29 10:51:25;;;;;;;8.30;4.78;;;;;;;;;;4994370;28;20022;-74
2022/01/29 10:53:54;;;;;;;8.63;5.18;;;;;;;;;;4994002;28;20132;-73
2022/01/29 10:56:21;;;;;;;6.78;3.50;;;;;;;;;;4993911;28;20029;-70
2022/01/29 10:58:50;;;;;;;6.30;3.67;;;;;;;;;;4994116;28;20512;-73
2022/01/29 11:01:24;;;;;;;5.15;3.17;;;;;;;;;;4987777;28;20018;-71
2022/01/29 11:03:53;;;;;;;7.63;5.28;;;;;;;;;;4973389;28;20165;-74
2022/01/29 11:06:22;;;;;;;8.02;5.00;;;;;;;;;;4975523;28;20069;-71
2022/01/29 11:08:48;;;;;;;8.35;5.07;;;;;;;;;;4974790;28;20030;-74
2022/01/29 11:11:15;;;;;;;10.20;5.53;;;;;;;;;;4974791;28;20035;-75
2022/01/29 11:13:43;;;;;;;10.23;6.38;;;;;;;;;;4974439;28;20042;-75
2022/01/29 11:16:10;;;;;;;12.23;5.38;;;;;;;;;;4974285;28;20035;-71
2022/01/29 11:18:36;;;;;;;11.35;6.40;;;;;;;;;;4974581;28;20105;-69
2022/01/29 11:21:03;;;;;;;13.52;6.20;;;;;;;;;;4974239;28;20046;-68
2022/01/29 11:23:30;;;;;;;10.35;6.78;;;;;;;;;;4974067;28;20042;-72
2022/01/29 11:25:59;;;;;;;11.75;6.13;;;;;;;;;;4973985;28;20019;-73
2022/01/29 11:28:28;;;;;;;10.15;6.30;;;;;;;;;;4974091;28;20133;-70
2022/01/29 11:31:14;;;;;;;10.75;5.95;;;;;;;;;;4973017;28;20089;-71
2022/01/29 11:33:58;;;;;;;10.85;5.47;;;;;;;;;;4974033;28;20473;-71
2022/01/29 11:36:49;;;;;;;13.55;6.40;;;;;;;;;;4973638;28;20477;-73
2022/01/29 11:39:29;;;;;;;9.00;5.70;;;;;;;;;;4974033;28;20046;-73
2022/01/29 11:42:13;;;;;;;11.48;5.00;;;;;;;;;;4974090;28;20050;-69
2022/01/29 11:44:39;;;;;;;9.60;5.22;;;;;;;;;;4973833;28;20038;-73
2022/01/29 11:47:24;;;;;;;7.32;4.50;;;;;;;;;;4973632;28;20051;-73
2022/01/29 11:50:10;;;;;;;8.10;4.18;;;;;;;;;;4973964;28;20058;-68
2022/01/29 11:53:02;;;;;;;7.35;3.92;;;;;;;;;;4973579;28;20389;-69
2022/01/29 11:55:41;;;;;;;5.72;3.28;;;;;;;;;;4973545;28;20070;-67
2022/01/29 11:58:15;;;;;;;7.07;3.95;;;;;;;;;;4972373;28;20046;-71
2022/01/29 12:00:41;;;;;;;;;;;;;;;;;;4974317;28;20478;-72
2022/01/29 12:03:28;;;;;;;7.35;3.55;;;;;;;;;;4973551;28;20364;-74
2022/01/29 12:06:17;;;;;;;9.77;4.78;;;;;;;;;;4973400;28;20470;-77
2022/01/29 12:09:21;;;;;;;7.93;4.72;;;;;;;;;;4973590;28;20425;-75
2022/01/29 12:12:13;;;;;;;6.90;3.00;;;;;;;;;;4973795;28;20401;-75
2022/01/29 12:14:39;;;;;;;7.00;3.45;;;;;;;;;;4973571;28;20062;-72
2022/01/29 12:17:07;;;;;;;6.78;3.40;;;;;;;;;;4973454;28;20022;-74
2022/01/29 12:19:33;;;;;;;9.45;5.25;;;;;;;;;;4973687;28;20079;-75
2022/01/29 12:22:00;;;;;;;8.05;4.50;;;;;;;;;;4973807;28;20532;-71
2022/01/29 12:24:25;;;;;;;7.72;4.82;;;;;;;;;;4973251;28;20066;-74
2022/01/29 12:26:58;;;;;;;7.63;3.85;;;;;;;;;;4973131;28;20062;-76
2022/01/29 12:29:24;;;;;;;7.03;3.50;;;;;;;;;;4973511;28;20117;-72
2022/01/29 12:31:53;;;;;;;6.70;3.78;;;;;;;;;;4973444;28;20070;-75
2022/01/29 12:34:21;;;;;;;7.20;4.10;;;;;;;;;;4971932;28;20118;-71
2022/01/29 12:36:49;;;;;;;9.85;4.00;;;;;;;;;;4973645;28;20093;-73
2022/01/29 12:39:24;;;;;;;7.05;3.67;;;;;;;;;;4973565;28;20504;-72
2022/01/29 12:42:13;;;;;;;10.00;5.00;;;;;;;;;;4973461;28;20035;-76
2022/01/29 12:44:52;;;;;;;7.65;4.47;;;;;;;;;;4976342;28;20037;-75
2022/01/29 12:47:36;;;;;;;4.53;2.40;;;;;;;;;;4977505;28;20039;-75
2022/01/29 12:50:04;;;;;;;8.98;4.38;;;;;;;;;;4977131;28;20037;-72
2022/01/29 12:52:30;;;;;;;8.35;3.97;;;;;;;;;;4976905;28;20030;-71
2022/01/29 12:54:58;;;;;;;5.35;2.53;;;;;;;;;;4977279;28;20031;-77
2022/01/29 12:57:45;;;;;;;5.57;3.30;;;;;;;;;;4976905;28;20059;-73
2022/01/29 13:00:14;;;;;;;6.03;3.78;;;;;;;;;;4977077;28;20435;-78
2022/01/29 13:02:41;;;;;;;6.10;3.10;;;;;;;;;;4977304;28;20115;-73
2022/01/29 13:05:07;;;;;;;6.03;3.45;;;;;;;;;;4977168;28;20063;-76
2022/01/29 13:07:36;;;;;;;6.47;4.68;;;;;;;;;;4976852;28;20054;-75
2022/01/29 13:10:07;;;;;;;7.10;4.20;;;;;;;;;;4976929;28;20027;-73
2022/01/29 13:12:41;;;;;;;7.38;3.92;;;;;;;;;;4976404;28;20514;-75
2022/01/29 13:15:12;;;;;;;9.68;5.20;;;;;;;;;;4975936;28;20045;-76
2022/01/29 13:17:42;;;;;;;6.78;4.15;;;;;;;;;;4976487;28;20271;-77
2022/01/29 13:20:14;;;;;;;8.98;4.90;;;;;;;;;;4973248;28;20091;-74
2022/01/29 13:22:42;;;;;;;12.40;4.90;;;;;;;;;;4976281;28;20030;-75
2022/01/29 13:25:10;;;;;;;16.95;8.57;;;;;;;;;;4983229;28;20026;-74
2022/01/29 13:27:38;;;;;;;10.73;5.53;;;;;;;;;;4986931;28;20048;-71
2022/01/29 13:30:19;;;;;;;8.32;4.88;;;;;;;;;;4976199;28;20470;-71
2022/01/29 13:33:04;;;;;;;8.05;5.20;;;;;;;;;;4974779;28;20043;-69
2022/01/29 13:35:30;;;;;;;10.98;5.63;;;;;;;;;;4991719;28;20034;-69
2022/01/29 13:38:24;;;;;;;6.78;4.00;;;;;;;;;;4994054;28;20030;-69
2022/01/29 13:40:58;;;;;;;8.25;4.40;;;;;;;;;;4993847;28;20038;-73
2022/01/29 13:43:32;;;;;;;;;;;;;;;;;;4994758;28;20048;-74
2022/01/29 13:46:06;;;;;;;8.15;5.55;;;;;;;;;;4994013;28;19917;-68
2022/01/29 13:48:45;;;;;;;9.23;5.00;;;;;;;;;;4993690;28;20042;-68
2022/01/29 13:51:12;;;;;;;8.55;4.72;;;;;;;;;;4994004;28;20684;-69
2022/01/29 13:53:41;;;;;;;8.25;5.07;;;;;;;;;;4993943;28;20027;-69
2022/01/29 13:56:12;;;;;;;8.20;4.95;;;;;;;;;;4992702;28;20036;-69
2022/01/29 13:58:52;;;;;;;7.72;4.40;;;;;;;;;;4993608;28;20042;-74
2022/01/29 14:01:40;;;;;;;10.77;5.70;;;;;;;;;;4993793;28;20113;-68
2022/01/29 14:04:21;;;;;;;8.25;4.25;;;;;;;;;;4993629;28;20066;-79
2022/01/29 14:06:55;;;;;;;7.65;3.75;;;;;;;;;;4993244;28;20463;-68
2022/01/29 14:09:34;;;;;;;5.60;3.50;;;;;;;;;;4993549;28;20485;-70
2022/01/29 14:12:05;;;;;;;9.00;4.25;;;;;;;;;;4993463;28;20041;-68
2022/01/29 14:14:31;;;;;;;7.75;4.93;;;;;;;;;;4993257;28;20161;-70
2022/01/29 14:16:59;;;;;;;6.88;4.40;;;;;;;;;;4996308;28;20097;-69
2022/01/29 14:19:28;;;;;;;6.65;4.75;;;;;;;;;;4992898;28;20053;-70
2022/01/29 14:21:55;;;;;;;11.20;5.78;;;;;;;;;;4992801;28;20084;-69
2022/01/29 14:24:21;;;;;;;9.10;5.25;;;;;;;;;;4993030;28;20042;-76
2022/01/29 14:26:47;;;;;;;11.45;5.22;;;;;;;;;;4993038;28;20034;-73
2022/01/29 14:29:14;;;;;;;8.77;5.35;;;;;;;;;;4993285;28;20041;-76
2022/01/29 14:31:41;;;;;;;8.65;4.68;;;;;;;;;;4993149;28;20023;-76
2022/01/29 14:34:07;;;;;;;8.40;5.10;;;;;;;;;;4993010;28;20496;-72
2022/01/29 14:36:37;;;;;;;8.70;4.75;;;;;;;;;;4992967;28;20026;-70
2022/01/29 14:39:05;;;;;;;8.88;4.40;;;;;;;;;;4993188;28;20073;-72
2022/01/29 14:41:31;;;;;;;7.05;4.28;;;;;;;;;;4992786;28;20030;-68
2022/01/29 14:43:57;;;;;;;5.30;3.70;;;;;;;;;;4987655;28;20030;-74
2022/01/29 14:46:23;;;;;;;10.40;5.72;;;;;;;;;;4973210;28;20118;-71
2022/01/29 14:48:51;;;;;;;9.57;5.22;;;;;;;;;;4974686;28;20126;-76
2022/01/29 14:51:19;;;;;;;11.18;6.00;;;;;;;;;;4974771;28;20034;-69
2022/01/29 14:53:46;;;;;;;11.30;6.57;;;;;;;;;;4974901;28;20035;-73
2022/01/29 14:56:12;;;;;;;12.13;6.38;;;;;;;;;;4974748;28;20027;-71
2022/01/29 14:58:38;;;;;;;15.65;8.52;;;;;;;;;;4974292;28;20086;-72
2022/01/29 15:01:04;;;;;;;12.90;7.03;;;;;;;;;;4974723;28;20035;-74
2022/01/29 15:03:30;;;;;;;10.48;5.00;;;;;;;;;;4974895;28;20041;-68